Time;durP1;ratioP1;P1;durP2;ratioP2;P2;SDS_P1;SDS_P2;PMS_P1;PMS_P2;Temp;Humidity;BMP_temperature;BMP_pressure;BME280_temperature;BME280_humidity;BME280_pressure;Samples;Min_cycle;Max_cycle;Signal;HPM_P1;HPM_P2
2022/05/30 00:00:06;;;;;;;5.95;1.52;;;7.20;99.90;;;;;;4206659;28;20059;-76
2022/05/30 00:04:09;;;;;;;1.30;0.98;;;7.20;99.90;;;;;;4226278;22;41586;-71
2022/05/30 00:06:18;;;;;;;2.63;1.48;;;7.20;99.90;;;;;;4204264;28;20057;-72
2022/05/30 00:08:20;;;;;;;2.00;1.25;;;7.10;99.90;;;;;;4205775;28;20137;-71
2022/05/30 00:10:22;;;;;;;0.98;0.90;;;7.10;99.90;;;;;;4207000;28;20060;-72
2022/05/30 00:12:24;;;;;;;2.60;1.70;;;7.10;99.90;;;;;;4204623;28;20064;-72
2022/05/30 00:14:26;;;;;;;1.33;1.10;;;7.00;99.90;;;;;;4204786;28;20067;-72
2022/05/30 00:16:27;;;;;;;2.15;1.20;;;6.90;99.90;;;;;;4205793;28;20060;-72
2022/05/30 00:18:29;;;;;;;2.15;0.98;;;6.90;99.90;;;;;;4212189;28;20056;-72
2022/05/30 00:20:31;;;;;;;1.77;1.40;;;6.90;99.90;;;;;;4208106;28;20056;-71
2022/05/30 00:22:33;;;;;;;2.20;1.20;;;6.80;99.90;;;;;;4209202;28;20107;-72
2022/05/30 00:24:34;;;;;;;2.28;1.33;;;6.80;99.90;;;;;;4208672;28;20159;-71
2022/05/30 00:26:37;;;;;;;2.05;1.13;;;6.80;99.90;;;;;;4208591;28;20049;-72
2022/05/30 00:28:39;;;;;;;1.25;1.15;;;6.80;99.90;;;;;;4207484;28;20168;-72
2022/05/30 00:30:40;;;;;;;3.33;1.50;;;6.80;99.90;;;;;;4208109;28;20056;-72
2022/05/30 00:32:42;;;;;;;2.67;1.30;;;6.60;99.90;;;;;;4206368;28;20057;-72
2022/05/30 00:34:44;;;;;;;3.47;1.40;;;6.60;99.90;;;;;;4206650;28;20057;-72
2022/05/30 00:36:46;;;;;;;2.05;1.45;;;6.60;99.90;;;;;;4212230;28;20879;-72
2022/05/30 00:38:47;;;;;;;2.63;1.40;;;6.60;99.90;;;;;;4204076;28;20093;-72
2022/05/30 00:40:49;;;;;;;2.20;1.70;;;6.60;99.90;;;;;;4201722;28;20057;-72
2022/05/30 00:42:51;;;;;;;2.15;1.60;;;6.60;99.90;;;;;;4208802;28;20059;-72
2022/05/30 00:44:54;;;;;;;1.40;1.30;;;6.70;99.90;;;;;;4211289;28;20059;-72
2022/05/30 00:46:55;;;;;;;1.98;1.20;;;6.70;99.90;;;;;;4203324;28;20064;-72
2022/05/30 00:49:01;;;;;;;2.33;1.50;;;6.60;99.90;;;;;;4201076;28;20059;-72
2022/05/30 00:51:09;;;;;;;1.73;1.35;;;6.50;99.90;;;;;;4202401;28;20645;-72
2022/05/30 00:53:12;;;;;;;1.55;1.20;;;6.50;99.90;;;;;;4201094;28;20099;-72
2022/05/30 00:55:18;;;;;;;3.67;1.75;;;6.60;99.90;;;;;;4202522;28;20072;-72
2022/05/30 00:57:23;;;;;;;1.88;1.30;;;6.60;99.90;;;;;;4199385;28;20179;-72
2022/05/30 00:59:25;;;;;;;1.67;1.58;;;6.60;99.90;;;;;;4202818;28;20195;-72
2022/05/30 01:01:28;;;;;;;1.50;1.40;;;6.60;99.90;;;;;;4202038;28;20056;-72
2022/05/30 01:08:11;;;;;;;;;;;6.60;99.90;;;;;;4202075;28;20057;-72
2022/05/30 01:10:18;;;;;;;1.25;1.15;;;6.60;99.90;;;;;;4211198;28;19928;-72
2022/05/30 01:12:36;;;;;;;1.83;1.27;;;6.60;99.90;;;;;;4211720;28;20061;-72
2022/05/30 01:14:41;;;;;;;4.13;1.55;;;6.60;99.90;;;;;;4207240;28;20080;-72
2022/05/30 01:16:43;;;;;;;3.20;1.52;;;6.50;99.90;;;;;;4209257;28;20812;-72
2022/05/30 01:18:49;;;;;;;2.13;1.75;;;6.50;99.90;;;;;;4209687;28;20940;-72
2022/05/30 01:21:03;;;;;;;4.25;1.60;;;6.20;99.90;;;;;;4207018;28;20049;-72
2022/05/30 01:23:10;;;;;;;2.95;1.70;;;6.20;99.90;;;;;;4207279;28;20057;-72
2022/05/30 01:25:30;;;;;;;2.20;1.73;;;6.20;99.90;;;;;;4207289;28;20056;-72
2022/05/30 01:28:07;;;;;;;4.45;2.00;;;6.20;99.90;;;;;;4204387;28;20075;-72
2022/05/30 01:30:15;;;;;;;2.47;1.45;;;6.20;99.90;;;;;;4206984;28;20852;-72
2022/05/30 01:32:18;;;;;;;2.03;1.67;;;6.30;99.90;;;;;;4208015;28;20175;-72
2022/05/30 01:34:25;;;;;;;2.05;1.55;;;6.30;99.90;;;;;;4206612;28;20060;-72
2022/05/30 01:36:29;;;;;;;3.58;1.58;;;6.30;99.90;;;;;;4205540;28;20063;-72
2022/05/30 01:38:31;;;;;;;2.92;1.65;;;6.30;99.90;;;;;;4206249;28;20061;-72
2022/05/30 01:40:32;;;;;;;2.15;1.30;;;6.20;99.90;;;;;;4206725;28;20693;-72
2022/05/30 01:42:34;;;;;;;3.33;1.73;;;6.30;99.90;;;;;;4206495;28;20056;-72
2022/05/30 01:44:36;;;;;;;2.65;1.70;;;6.30;99.90;;;;;;4202061;28;20072;-72
2022/05/30 01:46:38;;;;;;;2.50;1.58;;;6.30;99.90;;;;;;4205762;28;20171;-73
2022/05/30 01:48:39;;;;;;;2.42;1.80;;;6.30;99.90;;;;;;4207504;28;20079;-72
2022/05/30 01:50:41;;;;;;;3.58;2.53;;;6.20;99.90;;;;;;4204251;28;20975;-72
2022/05/30 01:52:43;;;;;;;1.58;1.48;;;6.10;99.90;;;;;;4204136;28;20079;-72
2022/05/30 01:54:45;;;;;;;1.55;1.38;;;6.00;99.90;;;;;;4205051;28;20064;-72
2022/05/30 01:56:48;;;;;;;3.00;1.92;;;6.00;99.90;;;;;;4204289;28;20060;-72
2022/05/30 01:58:50;;;;;;;4.05;1.80;;;6.00;99.90;;;;;;4201165;28;20053;-72
2022/05/30 02:00:52;;;;;;;4.15;1.80;;;5.90;99.90;;;;;;4202512;28;20235;-72
2022/05/30 02:02:53;;;;;;;2.35;1.55;;;5.80;99.90;;;;;;4203780;28;20068;-72
2022/05/30 02:04:56;;;;;;;6.30;1.70;;;5.80;99.90;;;;;;4200411;28;20053;-72
2022/05/30 02:06:58;;;;;;;1.77;1.63;;;5.80;99.90;;;;;;4201938;28;20761;-72
2022/05/30 02:09:00;;;;;;;2.00;1.90;;;5.90;99.90;;;;;;4205404;28;20068;-72
2022/05/30 02:11:02;;;;;;;2.63;1.70;;;5.90;99.90;;;;;;4212998;28;20056;-73
2022/05/30 02:13:05;;;;;;;2.38;2.15;;;6.00;99.90;;;;;;4210789;28;20108;-72
2022/05/30 02:15:07;;;;;;;1.88;1.48;;;6.00;99.90;;;;;;4205247;28;20860;-72
2022/05/30 02:17:09;;;;;;;2.92;1.90;;;6.00;99.90;;;;;;4199348;28;20057;-71
2022/05/30 02:19:11;;;;;;;3.13;1.80;;;6.00;99.90;;;;;;4202108;28;20057;-72
2022/05/30 02:21:12;;;;;;;4.28;2.17;;;5.90;99.90;;;;;;4207298;28;20059;-73
2022/05/30 02:23:14;;;;;;;3.72;2.08;;;5.80;99.90;;;;;;4209012;28;20053;-72
2022/05/30 02:25:16;;;;;;;3.30;2.03;;;5.80;99.90;;;;;;4206361;28;20087;-72
2022/05/30 02:27:18;;;;;;;2.47;2.20;;;5.80;99.90;;;;;;4206552;28;20060;-72
2022/05/30 02:29:21;;;;;;;2.22;1.70;;;5.80;99.90;;;;;;4208659;28;20859;-72
2022/05/30 02:31:22;;;;;;;2.35;1.80;;;5.80;99.90;;;;;;4204435;28;20061;-72
2022/05/30 02:38:09;;;;;;;3.63;1.75;;;5.60;99.90;;;;;;4209445;28;20067;-72
2022/05/30 02:40:11;;;;;;;2.33;2.13;;;5.60;99.90;;;;;;4204754;28;20053;-72
2022/05/30 02:42:13;;;;;;;2.20;2.00;;;5.60;99.90;;;;;;4203077;28;20060;-72
2022/05/30 02:44:18;;;;;;;2.60;2.40;;;5.60;99.90;;;;;;4207494;28;20878;-72
2022/05/30 02:46:20;;;;;;;7.82;2.22;;;5.60;99.90;;;;;;4204585;28;20059;-72
2022/05/30 02:48:23;;;;;;;5.68;2.40;;;5.60;99.90;;;;;;4206530;28;20115;-72
2022/05/30 02:50:25;;;;;;;3.60;2.55;;;5.70;99.90;;;;;;4202842;28;20921;-72
2022/05/30 02:52:26;;;;;;;4.43;2.47;;;5.60;99.90;;;;;;4207554;28;20684;-72
2022/05/30 02:54:28;;;;;;;2.25;2.03;;;5.60;99.90;;;;;;4206710;28;20057;-72
2022/05/30 02:56:30;;;;;;;2.80;2.13;;;5.50;99.90;;;;;;4204413;28;20056;-72
2022/05/30 02:58:32;;;;;;;2.35;2.17;;;5.60;99.90;;;;;;4205283;28;20053;-72
2022/05/30 03:00:34;;;;;;;6.30;2.35;;;5.60;99.90;;;;;;4203636;28;20075;-72
2022/05/30 03:02:35;;;;;;;4.03;2.30;;;5.60;99.90;;;;;;4208724;28;20111;-72
2022/05/30 03:04:37;;;;;;;3.05;2.40;;;5.50;99.90;;;;;;4204202;28;20053;-72
2022/05/30 03:06:39;;;;;;;2.75;1.65;;;5.60;99.90;;;;;;4202660;28;20885;-72
2022/05/30 03:08:41;;;;;;;2.85;2.45;;;5.60;99.90;;;;;;4203800;28;20175;-72
2022/05/30 03:10:43;;;;;;;3.38;3.13;;;5.60;99.90;;;;;;4210051;28;20159;-72
2022/05/30 03:12:44;;;;;;;14.10;10.38;;;5.60;99.90;;;;;;4202349;28;20059;-72
2022/05/30 03:14:46;;;;;;;23.67;16.65;;;5.40;99.90;;;;;;4200373;28;20091;-72
2022/05/30 03:16:48;;;;;;;28.23;17.60;;;5.30;99.90;;;;;;4206253;28;20060;-72
2022/05/30 03:18:50;;;;;;;24.05;15.32;;;5.30;99.90;;;;;;4203028;28;20057;-72
2022/05/30 03:20:52;;;;;;;25.00;17.73;;;5.30;99.90;;;;;;4208461;28;20148;-72
2022/05/30 03:22:53;;;;;;;20.30;14.57;;;5.30;99.90;;;;;;4209930;28;20176;-73
2022/05/30 03:24:55;;;;;;;12.55;10.55;;;5.30;99.90;;;;;;4199403;28;20060;-72
2022/05/30 03:26:57;;;;;;;13.73;10.40;;;5.30;99.90;;;;;;4198085;28;20184;-72
2022/05/30 03:28:59;;;;;;;7.95;6.60;;;5.30;99.90;;;;;;4200215;28;20061;-73
2022/05/30 03:31:01;;;;;;;4.00;3.22;;;5.40;99.90;;;;;;4200121;28;20159;-72
2022/05/30 03:33:05;;;;;;;2.85;2.03;;;5.40;99.90;;;;;;4208993;28;20056;-72
2022/05/30 03:35:07;;;;;;;3.08;2.78;;;5.40;99.90;;;;;;4208448;28;20060;-72
2022/05/30 03:37:09;;;;;;;2.75;2.53;;;5.50;99.90;;;;;;4208355;28;20061;-71
2022/05/30 03:39:11;;;;;;;3.10;2.80;;;5.50;99.90;;;;;;4204196;28;20061;-72
2022/05/30 03:41:12;;;;;;;3.17;2.85;;;5.50;99.90;;;;;;4199902;28;20109;-72
2022/05/30 03:43:14;;;;;;;2.42;2.17;;;5.50;99.90;;;;;;4205458;28;20056;-72
2022/05/30 03:45:16;;;;;;;2.30;2.00;;;5.50;99.90;;;;;;4205857;28;20056;-71
2022/05/30 03:47:18;;;;;;;3.22;2.00;;;5.50;99.90;;;;;;4200290;28;20068;-72
2022/05/30 03:49:20;;;;;;;3.55;2.03;;;5.50;99.90;;;;;;4205216;28;20862;-72
2022/05/30 03:51:21;;;;;;;3.67;2.30;;;5.50;99.90;;;;;;4205387;28;20056;-72
2022/05/30 03:53:23;;;;;;;2.63;2.00;;;5.50;99.90;;;;;;4205392;28;21156;-72
2022/05/30 03:55:25;;;;;;;4.25;2.22;;;5.50;99.90;;;;;;4210133;28;20865;-72
2022/05/30 03:57:26;;;;;;;2.38;2.08;;;5.60;99.90;;;;;;4210197;28;20067;-72
2022/05/30 03:59:28;;;;;;;2.15;1.90;;;5.50;99.90;;;;;;4209927;28;20764;-72
2022/05/30 04:01:34;;;;;;;5.05;2.00;;;5.40;99.90;;;;;;4210780;28;20091;-72
2022/05/30 04:03:37;;;;;;;10.57;2.63;;;5.30;99.90;;;;;;4207660;28;20056;-72
2022/05/30 04:05:39;;;;;;;4.68;1.95;;;5.30;99.90;;;;;;4207273;28;20171;-73
2022/05/30 04:07:41;;;;;;;2.80;2.03;;;5.30;99.90;;;;;;4208531;28;20611;-72
2022/05/30 04:09:43;;;;;;;3.35;2.42;;;5.20;99.90;;;;;;4207530;28;20771;-72
2022/05/30 04:11:44;;;;;;;4.88;2.50;;;5.20;99.90;;;;;;4206539;28;20092;-72
2022/05/30 04:13:46;;;;;;;4.45;3.63;;;5.20;99.90;;;;;;4206346;28;20061;-72
2022/05/30 04:15:48;;;;;;;9.43;6.15;;;5.20;99.90;;;;;;4213007;28;21110;-72
2022/05/30 04:17:49;;;;;;;12.90;7.43;;;5.30;99.90;;;;;;4206854;28;20057;-72
2022/05/30 04:19:52;;;;;;;17.08;10.85;;;5.40;99.90;;;;;;4207284;28;20061;-72
2022/05/30 04:21:54;;;;;;;9.52;6.25;;;5.50;99.90;;;;;;4208405;28;20180;-72
2022/05/30 04:23:56;;;;;;;5.75;4.75;;;5.60;99.90;;;;;;4205723;28;20139;-72
2022/05/30 04:25:57;;;;;;;4.53;3.20;;;5.60;99.90;;;;;;4205199;28;20879;-72
2022/05/30 04:27:59;;;;;;;3.25;2.45;;;5.70;99.90;;;;;;4205489;28;20060;-73
2022/05/30 04:30:01;;;;;;;2.65;2.40;;;5.80;99.90;;;;;;4210438;28;20057;-73
2022/05/30 04:32:04;;;;;;;4.57;3.28;;;5.80;99.90;;;;;;4202184;28;20056;-72
2022/05/30 04:34:07;;;;;;;5.45;3.13;;;5.90;99.90;;;;;;4206191;28;20814;-72
2022/05/30 04:36:12;;;;;;;5.03;3.70;;;5.90;99.90;;;;;;4203024;28;20795;-72
2022/05/30 04:38:14;;;;;;;4.35;3.42;;;6.00;99.90;;;;;;4207722;28;20767;-72
2022/05/30 04:40:18;;;;;;;4.65;3.55;;;6.10;99.90;;;;;;4208338;28;20060;-72
2022/05/30 04:42:20;;;;;;;11.18;10.13;;;6.20;99.90;;;;;;4209957;28;20707;-72
2022/05/30 04:44:21;;;;;;;8.30;7.50;;;6.30;99.90;;;;;;4201555;28;20963;-72
2022/05/30 04:46:23;;;;;;;8.32;7.53;;;6.30;99.90;;;;;;4206420;28;20084;-72
2022/05/30 04:48:25;;;;;;;5.93;4.80;;;6.30;99.90;;;;;;4200231;28;20057;-73
2022/05/30 04:50:27;;;;;;;5.60;3.97;;;6.30;99.90;;;;;;4213322;28;20052;-72
2022/05/30 04:52:29;;;;;;;3.65;3.33;;;6.40;99.90;;;;;;4201500;28;21157;-73
2022/05/30 04:54:30;;;;;;;3.50;3.25;;;6.50;99.90;;;;;;4210161;28;20063;-72
2022/05/30 04:56:32;;;;;;;6.18;3.70;;;6.60;99.90;;;;;;4209830;28;20839;-76
2022/05/30 04:58:36;;;;;;;3.25;2.75;;;6.70;99.90;;;;;;4203897;28;20061;-77
2022/05/30 05:00:37;;;;;;;5.22;2.80;;;6.90;99.90;;;;;;4210936;28;20159;-75
2022/05/30 05:02:39;;;;;;;3.85;2.97;;;7.00;99.90;;;;;;4205253;28;20179;-76
2022/05/30 05:04:41;;;;;;;3.22;2.60;;;7.20;99.90;;;;;;4214396;28;20060;-76
2022/05/30 05:06:43;;;;;;;2.55;2.35;;;7.30;99.90;;;;;;4210864;28;20263;-76
2022/05/30 05:08:51;;;;;;;3.47;3.17;;;7.40;99.90;;;;;;4214344;28;21195;-75
2022/05/30 05:11:03;;;;;;;3.42;2.83;;;7.60;99.90;;;;;;4209892;28;20059;-76
2022/05/30 05:13:05;;;;;;;5.20;2.85;;;7.70;99.90;;;;;;4209008;28;20059;-76
2022/05/30 05:15:07;;;;;;;5.15;2.63;;;7.70;99.90;;;;;;4214530;28;20060;-75
2022/05/30 05:17:09;;;;;;;3.60;2.67;;;7.90;99.90;;;;;;4211808;28;20106;-76
2022/05/30 05:19:11;;;;;;;5.53;3.20;;;8.00;99.90;;;;;;4208124;28;20138;-75
2022/05/30 05:21:21;;;;;;;4.55;2.60;;;8.10;99.90;;;;;;4205840;28;20097;-76
2022/05/30 05:23:31;;;;;;;3.20;2.63;;;8.20;99.90;;;;;;4214062;28;20053;-75
2022/05/30 05:25:36;;;;;;;5.82;2.45;;;8.40;99.90;;;;;;4212471;28;20056;-75
2022/05/30 05:27:38;;;;;;;4.97;2.97;;;8.50;99.90;;;;;;4211044;28;20111;-76
2022/05/30 05:29:40;;;;;;;4.45;2.25;;;8.70;99.90;;;;;;4212811;28;20064;-76
2022/05/30 05:31:42;;;;;;;5.30;3.30;;;8.80;99.90;;;;;;4212337;28;21187;-76
2022/05/30 05:33:44;;;;;;;4.85;3.13;;;8.90;99.90;;;;;;4210800;28;20224;-76
2022/05/30 05:35:46;;;;;;;4.47;2.28;;;9.10;99.90;;;;;;4206070;28;20631;-76
2022/05/30 05:37:48;;;;;;;5.22;2.58;;;9.20;99.90;;;;;;4201147;28;20168;-76
2022/05/30 05:39:50;;;;;;;7.28;3.00;;;9.40;99.20;;;;;;4208256;28;20064;-76
2022/05/30 05:41:51;;;;;;;3.53;2.53;;;9.40;99.10;;;;;;4208735;28;20064;-76
2022/05/30 05:43:55;;;;;;;5.18;2.47;;;9.40;98.00;;;;;;4210695;28;20083;-76
2022/05/30 05:45:56;;;;;;;21.98;2.35;;;9.50;97.50;;;;;;4206087;28;20560;-75
2022/05/30 05:47:58;;;;;;;3.78;2.17;;;9.60;97.60;;;;;;4209103;28;20056;-76
2022/05/30 05:50:00;;;;;;;8.13;2.70;;;9.70;97.20;;;;;;4204048;28;20180;-76
2022/05/30 05:52:03;;;;;;;5.68;2.47;;;9.70;97.10;;;;;;4208864;28;20812;-76
2022/05/30 05:54:05;;;;;;;3.78;2.20;;;9.90;96.70;;;;;;4209931;28;20056;-76
2022/05/30 05:56:19;;;;;;;3.92;2.35;;;10.00;96.30;;;;;;4207920;28;20164;-76
2022/05/30 05:58:22;;;;;;;2.10;1.90;;;10.10;94.40;;;;;;4202457;28;20084;-76
2022/05/30 06:00:23;;;;;;;2.70;2.05;;;10.20;94.00;;;;;;4198766;28;20926;-75
2022/05/30 06:02:27;;;;;;;2.60;2.40;;;10.40;94.10;;;;;;4209463;28;20067;-76
2022/05/30 06:04:29;;;;;;;4.03;2.40;;;10.50;94.10;;;;;;4201729;28;20061;-76
2022/05/30 06:06:31;;;;;;;7.72;2.65;;;10.60;93.90;;;;;;4198161;28;20057;-76
2022/05/30 06:08:39;;;;;;;6.82;2.83;;;10.70;93.60;;;;;;4205634;28;21090;-76
2022/05/30 06:11:05;;;;;;;4.65;2.72;;;10.80;93.10;;;;;;4212723;28;20099;-76
2022/05/30 06:13:02;;;;;;;4.30;2.42;;;10.90;92.90;;;;;;4209458;28;20083;-76
2022/05/30 06:15:05;;;;;;;3.83;2.33;;;11.00;92.50;;;;;;4204487;28;20172;-76
2022/05/30 06:17:07;;;;;;;3.22;2.55;;;11.10;92.30;;;;;;4209392;28;20803;-76
2022/05/30 06:19:08;;;;;;;5.57;2.55;;;11.20;91.60;;;;;;4207683;28;20057;-76
2022/05/30 06:21:11;;;;;;;4.05;2.70;;;11.30;91.20;;;;;;4205563;28;20063;-76
2022/05/30 06:23:12;;;;;;;2.60;2.25;;;11.40;90.80;;;;;;4211481;28;20064;-76
2022/05/30 06:25:14;;;;;;;3.78;2.03;;;11.50;90.40;;;;;;4204611;28;20057;-76
2022/05/30 06:27:18;;;;;;;4.57;2.70;;;11.60;89.10;;;;;;4208594;28;20107;-76
2022/05/30 06:29:20;;;;;;;4.20;1.88;;;11.60;89.50;;;;;;4210853;28;20080;-76
2022/05/30 06:31:28;;;;;;;5.30;2.90;;;11.60;87.60;;;;;;4209552;28;20049;-76
2022/05/30 06:33:30;;;;;;;2.92;2.30;;;11.60;88.60;;;;;;4208644;28;20065;-76
2022/05/30 06:35:32;;;;;;;3.80;2.30;;;11.70;88.90;;;;;;4210587;28;20060;-76
2022/05/30 06:37:33;;;;;;;3.28;1.70;;;11.80;88.40;;;;;;4214746;28;20067;-76
2022/05/30 06:39:35;;;;;;;3.25;1.25;;;11.70;87.30;;;;;;4212745;28;20060;-77
2022/05/30 06:41:37;;;;;;;2.53;2.00;;;11.80;87.00;;;;;;4211963;28;20091;-77
2022/05/30 06:43:39;;;;;;;2.00;1.27;;;11.90;86.60;;;;;;4212590;28;20055;-76
2022/05/30 06:45:47;;;;;;;2.88;1.50;;;11.80;82.70;;;;;;4213411;28;20064;-75
2022/05/30 06:47:48;;;;;;;2.20;1.42;;;11.90;84.70;;;;;;4209328;28;20890;-76
2022/05/30 06:49:51;;;;;;;2.58;1.13;;;12.00;84.30;;;;;;4212822;28;20765;-76
2022/05/30 06:51:52;;;;;;;3.38;1.63;;;12.10;80.80;;;;;;4206556;28;20058;-76
2022/05/30 06:53:54;;;;;;;3.00;1.50;;;12.10;81.60;;;;;;4209624;28;20060;-76
2022/05/30 06:55:56;;;;;;;2.38;1.67;;;12.10;81.90;;;;;;4206294;28;20053;-76
2022/05/30 06:58:13;;;;;;;2.45;1.63;;;12.30;79.80;;;;;;4206912;28;20068;-76
2022/05/30 07:00:16;;;;;;;6.85;1.80;;;12.30;81.10;;;;;;4205049;28;20057;-76
2022/05/30 07:02:18;;;;;;;2.20;1.52;;;12.40;80.10;;;;;;4205305;28;20057;-75
2022/05/30 07:04:20;;;;;;;5.80;2.08;;;12.40;79.30;;;;;;4201543;28;20099;-76
2022/05/30 07:06:25;;;;;;;3.42;1.38;;;12.40;78.90;;;;;;4199997;28;20057;-76
2022/05/30 07:08:26;;;;;;;1.80;1.23;;;12.50;79.40;;;;;;4208886;28;20823;-76
2022/05/30 07:10:30;;;;;;;2.97;1.42;;;12.50;78.60;;;;;;4202640;28;20052;-76
2022/05/30 07:12:32;;;;;;;3.60;1.77;;;12.50;77.00;;;;;;4201393;28;20072;-76
2022/05/30 07:14:34;;;;;;;2.75;2.00;;;12.50;76.80;;;;;;4213875;28;20213;-76
2022/05/30 07:16:36;;;;;;;2.50;1.67;;;12.50;77.20;;;;;;4201830;28;20115;-76
2022/05/30 07:18:39;;;;;;;8.35;2.50;;;12.50;77.00;;;;;;4200483;28;20100;-73
2022/05/30 07:20:41;;;;;;;3.70;1.38;;;12.40;76.00;;;;;;4202803;28;20063;-74
2022/05/30 07:22:43;;;;;;;2.25;1.27;;;12.50;77.10;;;;;;4213817;28;20053;-76
2022/05/30 07:24:44;;;;;;;4.30;2.03;;;12.60;76.60;;;;;;4202268;28;20053;-74
2022/05/30 07:26:46;;;;;;;4.93;1.40;;;12.70;76.50;;;;;;4205453;28;20056;-73
2022/05/30 07:28:49;;;;;;;2.78;1.77;;;12.80;76.60;;;;;;4205725;28;20822;-75
2022/05/30 07:30:51;;;;;;;3.75;1.67;;;12.80;75.30;;;;;;4201047;28;20123;-74
2022/05/30 07:32:54;;;;;;;5.75;1.80;;;12.80;74.70;;;;;;4201210;28;20096;-74
2022/05/30 07:34:56;;;;;;;3.92;1.88;;;12.80;74.90;;;;;;4205503;28;20102;-75
2022/05/30 07:37:00;;;;;;;5.07;1.42;;;12.80;74.60;;;;;;4206072;28;20053;-74
2022/05/30 07:39:03;;;;;;;2.55;1.33;;;12.80;74.70;;;;;;4208939;28;20878;-74
2022/05/30 07:41:05;;;;;;;2.95;1.10;;;12.90;73.80;;;;;;4203864;28;20056;-75
2022/05/30 07:43:06;;;;;;;2.88;0.90;;;12.90;73.60;;;;;;4201938;28;20056;-75
2022/05/30 07:45:10;;;;;;;3.28;1.08;;;13.00;73.60;;;;;;4198905;28;20053;-75
2022/05/30 07:47:11;;;;;;;1.92;1.48;;;13.00;73.00;;;;;;4208339;28;20057;-74
2022/05/30 07:49:14;;;;;;;2.08;1.08;;;13.00;72.40;;;;;;4206632;28;20063;-74
2022/05/30 07:51:16;;;;;;;2.05;1.80;;;12.90;72.60;;;;;;4204704;28;20095;-74
2022/05/30 07:53:17;;;;;;;3.38;1.55;;;12.90;71.10;;;;;;4213535;28;20056;-75
2022/05/30 07:55:19;;;;;;;2.40;1.45;;;13.00;72.80;;;;;;4207183;28;20361;-74
2022/05/30 07:57:50;;;;;;;1.55;1.45;;;13.10;71.00;;;;;;4207272;28;20147;-74
2022/05/30 07:59:43;;;;;;;1.80;1.50;;;13.00;72.40;;;;;;4204974;28;20061;-74
2022/05/30 08:01:44;;;;;;;1.58;1.27;;;13.00;72.10;;;;;;4206882;28;20099;-74
2022/05/30 08:03:48;;;;;;;5.22;1.67;;;13.00;73.20;;;;;;4203514;28;20703;-74
2022/05/30 08:05:49;;;;;;;4.65;2.08;;;13.10;71.60;;;;;;4209525;28;20818;-74
2022/05/30 08:07:52;;;;;;;4.53;1.73;;;13.20;72.50;;;;;;4206499;28;21188;-74
2022/05/30 08:09:59;;;;;;;2.10;1.70;;;13.10;70.90;;;;;;4205154;28;20061;-74
2022/05/30 08:12:01;;;;;;;3.03;1.73;;;13.10;72.10;;;;;;4208025;28;20833;-74
2022/05/30 08:14:03;;;;;;;5.25;2.53;;;13.20;72.20;;;;;;4203594;28;20174;-74
2022/05/30 08:16:05;;;;;;;1.92;1.40;;;13.20;71.60;;;;;;4201446;28;20064;-75
2022/05/30 08:18:13;;;;;;;4.05;1.77;;;13.20;71.40;;;;;;4198741;28;20799;-75
2022/05/30 08:20:15;;;;;;;3.75;1.58;;;13.30;71.60;;;;;;4207244;28;20061;-76
2022/05/30 08:22:18;;;;;;;3.70;1.70;;;13.30;72.30;;;;;;4209684;28;20067;-74
2022/05/30 08:24:20;;;;;;;3.50;1.88;;;13.30;71.10;;;;;;4204824;28;20099;-75
2022/05/30 08:26:22;;;;;;;7.35;2.20;;;13.20;71.90;;;;;;4212616;28;20049;-75
2022/05/30 08:28:23;;;;;;;3.25;1.65;;;13.30;72.70;;;;;;4204261;28;20155;-74
2022/05/30 08:30:26;;;;;;;6.75;2.20;;;13.20;71.10;;;;;;4203486;28;20095;-75
2022/05/30 08:32:33;;;;;;;2.20;1.83;;;13.00;72.10;;;;;;4201357;28;20796;-75
2022/05/30 08:34:35;;;;;;;2.03;1.48;;;12.80;72.10;;;;;;4208515;28;20603;-75
2022/05/30 08:36:37;;;;;;;3.65;1.90;;;12.70;73.20;;;;;;4198089;28;20047;-74
2022/05/30 08:38:40;;;;;;;4.93;2.15;;;12.60;73.90;;;;;;4202497;28;20092;-75
2022/05/30 08:43:04;;;;;;;2.15;1.70;;;12.80;71.30;;;;;;4200945;28;20065;-75
2022/05/30 08:45:09;;;;;;;3.85;2.30;;;13.10;72.60;;;;;;4204183;28;20061;-74
2022/05/30 08:47:44;;;;;;;3.40;1.60;;;13.30;69.40;;;;;;4204577;28;20053;-75
2022/05/30 08:49:49;;;;;;;5.97;1.63;;;13.30;70.40;;;;;;4206819;28;20057;-75
2022/05/30 08:51:57;;;;;;;2.72;1.38;;;13.20;70.70;;;;;;4212212;28;20057;-75
2022/05/30 08:54:28;;;;;;;3.17;1.85;;;13.30;72.00;;;;;;4205336;28;20096;-74
2022/05/30 08:56:34;;;;;;;3.08;1.77;;;13.50;70.10;;;;;;4185046;28;20871;-75
2022/05/30 08:58:54;;;;;;;3.40;1.52;;;13.60;69.70;;;;;;4205032;28;20063;-74
2022/05/30 09:01:02;;;;;;;8.80;2.17;;;13.50;67.20;;;;;;4212574;28;20068;-76
2022/05/30 09:03:25;;;;;;;4.00;2.13;;;13.70;68.40;;;;;;4207751;28;20057;-74
2022/05/30 09:05:30;;;;;;;2.00;1.38;;;13.90;67.40;;;;;;4209276;28;20156;-75
2022/05/30 09:07:53;;;;;;;2.53;1.10;;;14.00;65.00;;;;;;4212857;28;20084;-75
2022/05/30 09:10:02;;;;;;;2.35;1.33;;;13.80;66.70;;;;;;4209812;28;20052;-74
2022/05/30 09:12:14;;;;;;;4.03;1.65;;;13.60;65.10;;;;;;4208307;28;20045;-74
2022/05/30 09:14:30;;;;;;;2.58;2.00;;;13.40;66.30;;;;;;4211392;28;20096;-74
2022/05/30 09:16:44;;;;;;;3.35;2.17;;;13.30;66.00;;;;;;4206906;28;20056;-74
2022/05/30 09:18:49;;;;;;;4.60;1.38;;;13.30;65.50;;;;;;4205318;28;20123;-74
2022/05/30 09:20:51;;;;;;;2.75;1.30;;;13.50;66.60;;;;;;4206956;28;21002;-74
2022/05/30 09:22:53;;;;;;;3.08;1.00;;;13.80;64.40;;;;;;4205861;28;20060;-75
2022/05/30 09:27:15;;;;;;;1.92;1.33;;;14.20;66.20;;;;;;4206051;28;20051;-73
2022/05/30 09:29:31;;;;;;;3.35;1.25;;;14.20;60.90;;;;;;4204193;28;20088;-74
2022/05/30 09:31:36;;;;;;;1.40;1.30;;;13.80;61.70;;;;;;4206375;28;20859;-74
2022/05/30 09:33:41;;;;;;;4.43;1.17;;;13.60;63.30;;;;;;4208560;28;20053;-75
2022/05/30 09:35:43;;;;;;;2.45;1.23;;;13.50;63.10;;;;;;4207542;28;20059;-75
2022/05/30 09:37:45;;;;;;;1.02;0.90;;;13.70;64.20;;;;;;4204312;28;20064;-74
2022/05/30 09:39:48;;;;;;;2.42;1.20;;;14.00;63.40;;;;;;4204423;28;20061;-75
2022/05/30 09:41:57;;;;;;;1.65;1.25;;;14.20;63.00;;;;;;4202517;28;20057;-75
2022/05/30 09:44:03;;;;;;;2.40;1.00;;;14.50;62.00;;;;;;4205130;28;20060;-74
2022/05/30 09:46:19;;;;;;;2.45;1.20;;;14.70;60.20;;;;;;4217377;28;20045;-75
2022/05/30 09:48:23;;;;;;;1.30;0.98;;;14.80;59.70;;;;;;4213696;28;20091;-75
2022/05/30 09:50:25;;;;;;;2.50;0.90;;;14.80;58.40;;;;;;4204016;28;20060;-74
2022/05/30 09:52:36;;;;;;;2.33;0.90;;;14.90;57.50;;;;;;4199408;28;20103;-74
2022/05/30 09:54:38;;;;;;;2.42;1.25;;;15.00;55.40;;;;;;4202825;28;20764;-75
2022/05/30 09:56:43;;;;;;;2.63;1.10;;;14.90;58.90;;;;;;4204429;28;20972;-76
2022/05/30 09:58:48;;;;;;;2.65;0.90;;;14.90;58.40;;;;;;4209584;28;20862;-74
2022/05/30 10:00:57;;;;;;;1.65;0.85;;;15.10;55.90;;;;;;4211812;28;20813;-74
2022/05/30 10:03:11;;;;;;;2.33;0.65;;;15.20;55.00;;;;;;4208195;28;20780;-74
2022/05/30 10:05:19;;;;;;;1.27;1.02;;;15.10;52.60;;;;;;4201896;28;20098;-75
2022/05/30 10:07:21;;;;;;;1.95;0.70;;;14.90;55.30;;;;;;4213833;28;20243;-75
2022/05/30 10:09:25;;;;;;;1.90;0.68;;;14.60;55.00;;;;;;4208269;28;20057;-75
2022/05/30 10:11:32;;;;;;;1.63;0.68;;;14.50;55.00;;;;;;4210363;28;20044;-75
2022/05/30 10:13:35;;;;;;;2.10;0.73;;;14.40;55.80;;;;;;4208743;28;20131;-74
2022/05/30 10:15:41;;;;;;;1.42;0.70;;;14.20;55.00;;;;;;4205747;28;20171;-74
2022/05/30 10:17:43;;;;;;;3.38;1.08;;;14.10;55.30;;;;;;4207541;28;20052;-76
2022/05/30 10:19:48;;;;;;;1.05;0.60;;;14.10;54.50;;;;;;4209164;28;20079;-75
2022/05/30 10:29:33;;;;;;;3.00;0.65;;;14.20;53.60;;;;;;4208271;28;20060;-75
2022/05/30 10:32:05;;;;;;;1.42;0.60;;;14.30;53.90;;;;;;4204868;28;20060;-75
2022/05/30 10:34:22;;;;;;;2.35;0.77;;;14.50;55.10;;;;;;4205180;28;20091;-75
2022/05/30 10:36:42;;;;;;;1.48;0.73;;;15.00;50.80;;;;;;4208637;28;20060;-75
2022/05/30 10:39:01;;;;;;;4.60;1.00;;;15.50;50.40;;;;;;4204698;28;20057;-75
2022/05/30 10:41:20;;;;;;;1.40;0.55;;;15.90;52.70;;;;;;4204834;28;20059;-74
2022/05/30 10:43:48;;;;;;;4.43;0.73;;;16.30;50.00;;;;;;4211240;28;20871;-74
2022/05/30 10:45:57;;;;;;;2.60;0.77;;;16.50;50.30;;;;;;4211440;28;20807;-74
2022/05/30 10:48:01;;;;;;;0.98;0.60;;;16.60;48.00;;;;;;4204837;28;20693;-74
2022/05/30 10:50:20;;;;;;;5.40;0.95;;;16.90;47.00;;;;;;4210488;28;20092;-75
2022/05/30 10:52:36;;;;;;;1.42;0.70;;;17.10;47.30;;;;;;4206223;28;20060;-75
2022/05/30 10:54:43;;;;;;;0.50;0.50;;;17.40;47.50;;;;;;4201256;28;20053;-76
2022/05/30 10:56:48;;;;;;;2.05;0.68;;;17.50;49.10;;;;;;4204214;28;20093;-75
2022/05/30 10:58:50;;;;;;;1.38;0.75;;;17.70;44.50;;;;;;4202325;28;20056;-76
2022/05/30 11:00:58;;;;;;;1.23;0.75;;;17.60;44.60;;;;;;4206227;28;20175;-76
2022/05/30 11:03:33;;;;;;;4.18;0.70;;;17.70;45.70;;;;;;4201375;28;20179;-76
2022/05/30 11:05:39;;;;;;;1.00;0.47;;;17.80;44.80;;;;;;4201537;28;21165;-75
2022/05/30 11:08:09;;;;;;;0.95;0.85;;;17.90;43.80;;;;;;4202560;28;20766;-74
2022/05/30 11:10:45;;;;;;;1.25;0.57;;;17.90;42.80;;;;;;4209176;28;20872;-75
2022/05/30 11:13:13;;;;;;;1.15;0.60;;;17.80;44.20;;;;;;4202449;28;20060;-74
2022/05/30 11:15:32;;;;;;;2.05;0.70;;;17.80;46.90;;;;;;4198626;28;20059;-75
2022/05/30 11:17:55;;;;;;;1.08;0.75;;;17.70;45.20;;;;;;4211345;28;20856;-74